Time;durP1;ratioP1;P1;durP2;ratioP2;P2;SDS_P1;SDS_P2;PMS_P1;PMS_P2;Temp;Humidity;BMP_temperature;BMP_pressure;BME280_temperature;BME280_humidity;BME280_pressure;Samples;Min_cycle;Max_cycle;Signal;HPM_P1;HPM_P2
2023/10/13 00:01:26;;;;;;;2.7;1.8;;;;;;;13.61;68.37207;940.7661;;;;
2023/10/13 00:03:54;;;;;;;4.7;2.2;;;;;;;13.64;66.82422;940.7569;;;;
2023/10/13 00:06:18;;;;;;;5.5;2.2;;;;;;;13.8;66.84863;940.8091;;;;
2023/10/13 00:08:45;;;;;;;2.7;1.8;;;;;;;13.87;67.13477;940.7718;;;;
2023/10/13 00:11:10;;;;;;;3.3;1.9;;;;;;;13.84;67.50977;940.779;;;;
2023/10/13 00:13:43;;;;;;;4;1.8;;;;;;;13.74;68.09277;940.7361;;;;
2023/10/13 00:16:09;;;;;;;2.3;1.8;;;;;;;13.56;68.39844;940.7236;;;;
2023/10/13 00:18:33;;;;;;;2.9;2;;;;;;;13.56;68.44531;940.6692;;;;
2023/10/13 00:20:56;;;;;;;3.4;2.3;;;;;;;13.47;68.625;940.645;;;;
2023/10/13 00:23:20;;;;;;;3.9;1.9;;;;;;;13.35;68.83496;940.6228;;;;
2023/10/13 00:25:49;;;;;;;3.1;2.2;;;;;;;13.3;68.62109;940.5267;;;;
2023/10/13 00:28:09;;;;;;;3.1;1.7;;;;;;;13.35;68.26172;940.4829;;;;
2023/10/13 00:30:34;;;;;;;3.7;2;;;;;;;13.29;68.55078;940.4971;;;;
2023/10/13 00:32:59;;;;;;;3.6;1.8;;;;;;;13.29;68.75781;940.4283;;;;
2023/10/13 00:35:28;;;;;;;3.6;2;;;;;;;13.3;68.88574;940.4076;;;;
2023/10/13 00:37:53;;;;;;;3;1.8;;;;;;;13.25;69.0166;940.4675;;;;
2023/10/13 00:40:41;;;;;;;3.3;1.6;;;;;;;13.22;69.16309;940.4618;;;;
2023/10/13 00:42:50;;;;;;;2.6;1.8;;;;;;;13.25;69.1084;940.4626;;;;
2023/10/13 00:45:06;;;;;;;3.6;2.1;;;;;;;13.18;69.0625;940.5037;;;;
2023/10/13 00:47:49;;;;;;;3.7;2.2;;;;;;;13.1;70.20898;940.452;;;;
2023/10/13 00:49:56;;;;;;;4;2.1;;;;;;;13.13;70.58301;940.433;;;;
2023/10/13 00:52:22;;;;;;;3;1.7;;;;;;;13.23;69.55371;940.445;;;;
2023/10/13 00:54:48;;;;;;;3.1;1.9;;;;;;;13.32;68.31348;940.4692;;;;
2023/10/13 00:57:26;;;;;;;4.3;2.1;;;;;;;13.23;68.1748;940.325;;;;
2023/10/13 00:59:41;;;;;;;3.1;1.8;;;;;;;13.13;69.13574;940.4442;;;;
2023/10/13 01:02:37;;;;;;;3.7;1.8;;;;;;;13.18;68.83203;940.4109;;;;
2023/10/13 01:04:31;;;;;;;2.6;1.8;;;;;;;13.2;68.73242;940.4606;;;;
2023/10/13 01:06:53;;;;;;;4;1.9;;;;;;;13.1;69.41797;940.5024;;;;
2023/10/13 01:09:20;;;;;;;1.9;1.5;;;;;;;13.04;69.72852;940.5486;;;;
2023/10/13 01:11:46;;;;;;;3.7;2.1;;;;;;;13.07;69.79297;940.5519;;;;
2023/10/13 01:14:11;;;;;;;3.5;2;;;;;;;13.01;70.0459;940.5106;;;;
2023/10/13 01:16:39;;;;;;;3.6;1.8;;;;;;;13.02;70.2666;940.4709;;;;
2023/10/13 01:19:04;;;;;;;3.3;2;;;;;;;13.03;70.88672;940.4662;;;;
2023/10/13 01:21:27;;;;;;;3;1.8;;;;;;;13.04;69.4873;940.4278;;;;
2023/10/13 01:23:52;;;;;;;2;1.8;;;;;;;12.92;69.64063;940.4183;;;;
2023/10/13 01:26:23;;;;;;;2.6;2;;;;;;;12.85;70.05566;940.4109;;;;
2023/10/13 01:28:48;;;;;;;3.9;2.3;;;;;;;12.88;69.69043;940.3134;;;;
2023/10/13 01:31:08;;;;;;;3.5;1.7;;;;;;;12.88;69.65625;940.3846;;;;
2023/10/13 01:33:34;;;;;;;3.3;1.7;;;;;;;12.88;71.21875;940.3758;;;;
2023/10/13 01:36:00;;;;;;;3.1;1.9;;;;;;;12.9;71.12988;940.3615;;;;
2023/10/13 01:38:28;;;;;;;3.1;1.8;;;;;;;12.89;70.62402;940.3711;;;;
2023/10/13 01:40:51;;;;;;;16.4;7.6;;;;;;;12.91;70.66113;940.3208;;;;
2023/10/13 01:43:17;;;;;;;10.9;5.6;;;;;;;12.91;70.31543;940.3799;;;;
2023/10/13 01:45:49;;;;;;;4.1;2.2;;;;;;;12.84;70.28223;940.243;;;;
2023/10/13 01:48:09;;;;;;;4.1;2.6;;;;;;;12.83;70.0625;940.3092;;;;
2023/10/13 01:50:35;;;;;;;3.4;1.7;;;;;;;12.74;70.62305;940.3214;;;;
2023/10/13 01:53:11;;;;;;;2.8;1.8;;;;;;;12.64;70.88184;940.3137;;;;
2023/10/13 01:55:25;;;;;;;3.2;1.8;;;;;;;12.63;70.9707;940.3248;;;;
2023/10/13 01:57:50;;;;;;;2.6;1.7;;;;;;;12.63;71.35156;940.2098;;;;
2023/10/13 02:00:20;;;;;;;3.6;2.1;;;;;;;12.61;71.46191;940.3605;;;;
2023/10/13 02:02:45;;;;;;;3;1.8;;;;;;;12.57;71.71973;940.3419;;;;
2023/10/13 02:05:07;;;;;;;2.9;1.9;;;;;;;12.53;71.89551;940.3417;;;;
2023/10/13 02:07:38;;;;;;;3.9;2;;;;;;;12.52;71.90527;940.3959;;;;
2023/10/13 02:10:04;;;;;;;3.8;2.2;;;;;;;12.48;72.11621;940.3909;;;;
2023/10/13 02:12:36;;;;;;;4.6;1.9;;;;;;;12.39;72.35449;940.3686;;;;
2023/10/13 02:14:50;;;;;;;2.5;1.9;;;;;;;12.31;72.66211;940.313;;;;
2023/10/13 02:17:16;;;;;;;3.1;1.7;;;;;;;12.32;72.18164;940.2723;;;;
2023/10/13 02:19:44;;;;;;;2.4;1.8;;;;;;;12.28;73.60742;940.2594;;;;
2023/10/13 02:22:09;;;;;;;2.9;1.5;;;;;;;12.28;73.88379;940.3624;;;;
2023/10/13 02:24:39;;;;;;;3.1;1.5;;;;;;;12.24;72.91406;940.3373;;;;
2023/10/13 02:27:09;;;;;;;2.4;1.6;;;;;;;12.31;72.58203;940.3633;;;;
2023/10/13 02:29:39;;;;;;;3.3;2;;;;;;;12.31;72.29492;940.361;;;;
2023/10/13 02:32:12;;;;;;;3.9;1.7;;;;;;;12.28;72.02539;940.3831;;;;
2023/10/13 02:34:24;;;;;;;3.2;1.8;;;;;;;12.19;72.48047;940.3798;;;;
2023/10/13 02:36:54;;;;;;;2.1;1.8;;;;;;;12.16;72.75098;940.3477;;;;
2023/10/13 02:39:24;;;;;;;2.4;1.8;;;;;;;12.23;72.66992;940.3102;;;;
2023/10/13 02:41:47;;;;;;;3.9;2;;;;;;;12.11;72.93848;940.3267;;;;
2023/10/13 02:44:08;;;;;;;2;1.7;;;;;;;12.14;72.2666;940.303;;;;
2023/10/13 02:46:35;;;;;;;3.4;2.2;;;;;;;12.04;73.23438;940.3325;;;;
2023/10/13 02:49:02;;;;;;;3.6;2;;;;;;;12.04;73.02734;940.3405;;;;
2023/10/13 02:51:31;;;;;;;3.7;2;;;;;;;11.92;73.47949;940.2994;;;;
2023/10/13 02:54:02;;;;;;;3.7;2.1;;;;;;;11.87;74.01953;940.3765;;;;
2023/10/13 02:56:22;;;;;;;3.2;2;;;;;;;11.8;74.57031;940.2871;;;;
2023/10/13 02:58:53;;;;;;;3.8;2.1;;;;;;;11.7;74.96484;940.2286;;;;
2023/10/13 03:01:18;;;;;;;4.2;2;;;;;;;11.73;74.71777;940.2079;;;;
2023/10/13 03:03:37;;;;;;;4.2;2.3;;;;;;;11.65;75.10254;940.2344;;;;
2023/10/13 03:06:03;;;;;;;5.1;2;;;;;;;11.7;73.7041;940.2651;;;;
2023/10/13 03:08:33;;;;;;;4.7;2.5;;;;;;;11.52;74.13086;940.2555;;;;
2023/10/13 03:10:57;;;;;;;3.9;2;;;;;;;11.64;73.87793;940.3158;;;;
2023/10/13 03:13:26;;;;;;;4.3;2.2;;;;;;;11.64;73.64941;940.307;;;;
2023/10/13 03:15:50;;;;;;;2.4;2.2;;;;;;;11.64;74.25586;940.3438;;;;
2023/10/13 03:18:18;;;;;;;3.2;1.9;;;;;;;11.79;73.80957;940.366;;;;
2023/10/13 03:20:42;;;;;;;4.2;2.2;;;;;;;11.67;73.80273;940.3312;;;;
2023/10/13 03:23:09;;;;;;;2.9;1.9;;;;;;;11.6;73.99609;940.3853;;;;
2023/10/13 03:25:42;;;;;;;4.7;1.9;;;;;;;11.66;73.69629;940.4419;;;;
2023/10/13 03:28:05;;;;;;;2.8;1.8;;;;;;;11.5;73.71582;940.4387;;;;
2023/10/13 03:30:30;;;;;;;3.9;2.2;;;;;;;11.33;74.70508;940.4312;;;;
2023/10/13 03:32:50;;;;;;;3.4;2.1;;;;;;;11.16;75.27148;940.4069;;;;
2023/10/13 03:35:24;;;;;;;3.5;2;;;;;;;11.03;75.84277;940.4716;;;;
2023/10/13 03:37:41;;;;;;;4.2;2.5;;;;;;;11.09;75.01855;940.4962;;;;
2023/10/13 03:40:33;;;;;;;4.8;2.1;;;;;;;11.19;74.96582;940.4836;;;;
2023/10/13 03:42:32;;;;;;;4.8;2.2;;;;;;;11.44;74.43945;940.474;;;;
2023/10/13 03:44:57;;;;;;;3.4;2.1;;;;;;;11.59;73.76758;940.4969;;;;
2023/10/13 03:47:32;;;;;;;2.4;1.8;;;;;;;11.64;73.52148;940.4529;;;;
2023/10/13 03:49:51;;;;;;;4.1;1.9;;;;;;;11.69;73.45117;940.4224;;;;
2023/10/13 03:52:18;;;;;;;2.8;2;;;;;;;11.65;73.55957;940.3757;;;;
2023/10/13 03:54:40;;;;;;;2.9;2;;;;;;;11.73;73.33203;940.3142;;;;
2023/10/13 03:57:11;;;;;;;2.7;2;;;;;;;11.82;73.10547;940.3705;;;;
2023/10/13 03:59:35;;;;;;;3.3;1.9;;;;;;;11.87;73.02344;940.4188;;;;
2023/10/13 04:02:45;;;;;;;3;1.9;;;;;;;11.48;73.51855;940.4615;;;;
2023/10/13 04:05:09;;;;;;;3.8;2.3;;;;;;;11.4;74.29395;940.4709;;;;
2023/10/13 04:08:44;;;;;;;3.4;2.2;;;;;;;11.29;75.03027;940.4324;;;;
2023/10/13 04:17:14;;;;;;;2.8;1.9;;;;;;;11.15;75.87402;940.4163;;;;
2023/10/13 04:20:12;;;;;;;3.8;2.3;;;;;;;11.23;75.4541;940.3864;;;;
2023/10/13 04:22:14;;;;;;;2.9;1.9;;;;;;;11.3;75.38672;940.3934;;;;
2023/10/13 04:25:28;;;;;;;4;2.3;;;;;;;11.19;75.36816;940.3641;;;;
2023/10/13 04:27:29;;;;;;;3.6;1.9;;;;;;;11.19;75.5625;940.3522;;;;
2023/10/13 04:29:45;;;;;;;3.4;2.6;;;;;;;11.3;74.94043;940.332;;;;
2023/10/13 04:31:57;;;;;;;5.4;2.6;;;;;;;11.32;74.9668;940.2772;;;;
2023/10/13 04:34:27;;;;;;;4;2.7;;;;;;;11.17;75.21484;940.2388;;;;
2023/10/13 04:36:55;;;;;;;5.1;4;;;;;;;11.05;76.05273;940.2511;;;;
2023/10/13 04:39:19;;;;;;;6.7;4;;;;;;;10.89;76.87012;940.2802;;;;
2023/10/13 04:41:39;;;;;;;6.7;3.4;;;;;;;10.92;76.76074;940.2144;;;;
2023/10/13 04:44:47;;;;;;;5.6;3;;;;;;;10.89;76.8457;940.2076;;;;
2023/10/13 04:46:54;;;;;;;5.8;3.5;;;;;;;10.83;77.07617;940.2076;;;;
2023/10/13 04:48:56;;;;;;;5.7;2.9;;;;;;;10.75;77.41602;940.1547;;;;
2023/10/13 04:51:49;;;;;;;4.5;3.2;;;;;;;10.62;77.64453;940.1023;;;;
2023/10/13 04:54:00;;;;;;;4.3;3;;;;;;;10.62;77.54102;940.0505;;;;
2023/10/13 04:56:53;;;;;;;8.2;3.6;;;;;;;10.61;77.46973;940.1387;;;;
2023/10/13 04:59:17;;;;;;;8.8;3.2;;;;;;;10.71;76.74707;940.1392;;;;
2023/10/13 05:01:39;;;;;;;8.8;3.3;;;;;;;10.75;76.42188;940.0528;;;;
2023/10/13 05:44:56;;;;;;;3.4;2.4;;;;;;;11.18;74.96582;940.0803;;;;
2023/10/13 05:47:46;;;;;;;4.5;2.1;;;;;;;11.18;74.85059;940.1487;;;;
2023/10/13 05:50:04;;;;;;;4.1;2.2;;;;;;;11.17;75.11133;940.1192;;;;
2023/10/13 05:52:07;;;;;;;3.9;2.3;;;;;;;11.21;74.74316;940.1583;;;;
2023/10/13 06:28:45;;;;;;;23.4;12.8;;;;;;;12.07;70.77637;940.3041;;;;
2023/10/13 06:30:58;;;;;;;13.5;7.9;;;;;;;12.36;69.56348;940.3436;;;;
2023/10/13 06:33:28;;;;;;;6.2;3.4;;;;;;;12.67;68.41992;940.3083;;;;
2023/10/13 06:35:50;;;;;;;3.9;1.9;;;;;;;12.89;67.41016;940.3375;;;;
2023/10/13 06:38:20;;;;;;;4.7;2.1;;;;;;;13.18;64.57031;940.2742;;;;
2023/10/13 06:40:42;;;;;;;2.9;2.2;;;;;;;13.37;64.15039;940.2606;;;;
2023/10/13 06:43:21;;;;;;;4.5;2.5;;;;;;;13.49;64.31738;940.3338;;;;
2023/10/13 06:45:35;;;;;;;3.8;2.4;;;;;;;13.51;65.1377;940.4219;;;;
2023/10/13 06:47:59;;;;;;;3.5;2.4;;;;;;;13.37;65.10449;940.3934;;;;
2023/10/13 06:50:24;;;;;;;5.2;2.3;;;;;;;13.5;65.3877;940.3635;;;;
2023/10/13 06:52:49;;;;;;;4.7;2.6;;;;;;;13.59;66.22949;940.3756;;;;
2023/10/13 06:55:17;;;;;;;3.5;2;;;;;;;13.7;66.20117;940.4048;;;;
2023/10/13 06:57:43;;;;;;;5.8;2.7;;;;;;;13.86;65.5;940.4228;;;;
2023/10/13 07:00:07;;;;;;;2.6;1.9;;;;;;;14.01;63.33594;940.3588;;;;
2023/10/13 07:02:33;;;;;;;4.7;2.6;;;;;;;14.27;63.70898;940.3631;;;;
2023/10/13 07:04:56;;;;;;;4.1;2.1;;;;;;;14.46;63.51563;940.3505;;;;
2023/10/13 07:07:22;;;;;;;3;1.7;;;;;;;14.77;58.8457;940.3427;;;;
2023/10/13 07:09:55;;;;;;;4.6;2;;;;;;;15.24;59.30176;940.332;;;;
2023/10/13 07:12:16;;;;;;;3.4;2.3;;;;;;;15.58;57.16406;940.3391;;;;
2023/10/13 07:14:36;;;;;;;3.8;1.9;;;;;;;15.76;60.36523;940.271;;;;
2023/10/13 07:17:02;;;;;;;3.6;2.3;;;;;;;16.06;60.59277;940.3344;;;;
2023/10/13 07:19:27;;;;;;;3.7;2.1;;;;;;;16.34;57.48438;940.2798;;;;
2023/10/13 07:21:58;;;;;;;3.3;2.1;;;;;;;16.52;55.29688;940.3017;;;;
2023/10/13 07:24:19;;;;;;;4.8;1.9;;;;;;;16.53;53.72266;940.3008;;;;
2023/10/13 07:26:45;;;;;;;3.1;1.9;;;;;;;16.53;53.97852;940.3184;;;;
2023/10/13 07:29:09;;;;;;;2.9;1.9;;;;;;;16.7;53.52441;940.282;;;;
2023/10/13 07:31:37;;;;;;;3.5;1.9;;;;;;;16.78;53.52148;940.3688;;;;
2023/10/13 07:34:12;;;;;;;4.2;2.2;;;;;;;16.79;51.15039;940.2399;;;;
2023/10/13 07:36:34;;;;;;;2.7;1.6;;;;;;;16.97;51.49512;940.2518;;;;
2023/10/13 07:39:09;;;;;;;3;1.6;;;;;;;17.08;51.22949;940.2363;;;;
2023/10/13 07:41:22;;;;;;;3.6;2;;;;;;;17.12;51.90723;940.2269;;;;
2023/10/13 07:43:44;;;;;;;3;1.9;;;;;;;17.36;51.90039;940.1613;;;;
2023/10/13 07:46:13;;;;;;;2.3;1.6;;;;;;;17.72;51.32617;940.1192;;;;
2023/10/13 07:48:37;;;;;;;4.4;2;;;;;;;17.93;50.89844;940.1379;;;;
2023/10/13 07:51:03;;;;;;;3;1.9;;;;;;;18.09;49.29102;940.176;;;;
2023/10/13 07:53:34;;;;;;;2.1;1.6;;;;;;;18.22;49.11914;940.104;;;;
2023/10/13 07:55:57;;;;;;;2.5;1.6;;;;;;;18.49;49.27734;940.1431;;;;
2023/10/13 07:58:19;;;;;;;2.7;1.5;;;;;;;18.71;48.40625;940.1083;;;;
2023/10/13 08:00:54;;;;;;;2.3;1.6;;;;;;;19.06;47.33984;940.1333;;;;
2023/10/13 08:03:20;;;;;;;3.3;1.8;;;;;;;19.09;47.4707;940.0762;;;;
2023/10/13 08:05:55;;;;;;;3.5;1.4;;;;;;;19.1;48.65918;940.0647;;;;
2023/10/13 08:08:04;;;;;;;2.3;1.7;;;;;;;19.21;46.1543;940.0237;;;;
2023/10/13 08:10:29;;;;;;;2.8;1.8;;;;;;;19.15;46.0918;939.9846;;;;
2023/10/13 08:12:54;;;;;;;2.9;1.4;;;;;;;19.2;46.60742;939.9514;;;;
2023/10/13 08:15:32;;;;;;;4.6;1.8;;;;;;;19.71;47.5498;939.967;;;;
2023/10/13 08:17:44;;;;;;;2.4;1.9;;;;;;;20.17;43.60547;939.9454;;;;
2023/10/13 08:20:12;;;;;;;3;1.7;;;;;;;20.54;43.03516;939.8786;;;;
2023/10/13 08:22:38;;;;;;;2;1.6;;;;;;;20.93;43.90332;939.8572;;;;
2023/10/13 08:25:20;;;;;;;1.7;1.4;;;;;;;21.17;42.33594;939.8644;;;;
2023/10/13 08:27:48;;;;;;;3;1.9;;;;;;;21.27;42.81348;939.85;;;;
2023/10/13 08:30:26;;;;;;;3.1;1.5;;;;;;;21.31;43.15625;939.7735;;;;
2023/10/13 08:32:23;;;;;;;3.1;1.9;;;;;;;21.62;43.06934;939.7466;;;;
2023/10/13 08:34:59;;;;;;;3.1;1.7;;;;;;;21.52;40.88184;939.7358;;;;
2023/10/13 08:37:28;;;;;;;3.4;1.7;;;;;;;21.22;44.61133;939.6809;;;;
2023/10/13 08:40:21;;;;;;;3;1.5;;;;;;;21.2;44.0127;939.7015;;;;
2023/10/13 08:42:11;;;;;;;2.8;1.7;;;;;;;21.33;41.71875;939.7544;;;;
2023/10/13 08:44:34;;;;;;;3.8;1.9;;;;;;;21.46;40.92383;939.7198;;;;
2023/10/13 08:47:36;;;;;;;2;1.3;;;;;;;21.35;40.83105;939.6468;;;;
2023/10/13 08:49:19;;;;;;;2.1;1.6;;;;;;;21.49;39.94336;939.7215;;;;
2023/10/13 08:51:48;;;;;;;2.8;1.4;;;;;;;21.66;41.77441;939.6825;;;;
2023/10/13 08:54:18;;;;;;;2.2;1.5;;;;;;;21.77;39.98047;939.6506;;;;
2023/10/13 08:56:35;;;;;;;4.2;2.3;;;;;;;21.68;41.44824;939.5909;;;;
2023/10/13 08:59:07;;;;;;;3.1;1.9;;;;;;;21.82;41.92969;939.56;;;;
2023/10/13 09:01:39;;;;;;;2.7;1.7;;;;;;;21.94;42.62109;939.5516;;;;
2023/10/13 09:04:22;;;;;;;2.5;1.7;;;;;;;21.98;42.625;939.5176;;;;
2023/10/13 09:06:29;;;;;;;1.7;1.3;;;;;;;21.87;42.22656;939.514;;;;
2023/10/13 09:09:07;;;;;;;4.7;1.9;;;;;;;21.77;41.94824;939.4415;;;;
2023/10/13 09:11:26;;;;;;;3;1.8;;;;;;;21.73;41.25391;939.3535;;;;
2023/10/13 09:13:47;;;;;;;3.2;1.5;;;;;;;21.83;41.08691;939.4163;;;;
2023/10/13 09:16:15;;;;;;;2.3;1.5;;;;;;;22.06;40.74512;939.3503;;;;
2023/10/13 09:19:11;;;;;;;3.6;1.7;;;;;;;22.16;40.17969;939.3483;;;;
2023/10/13 09:21:25;;;;;;;2.4;1.7;;;;;;;22.55;40.47363;939.3592;;;;
2023/10/13 09:23:45;;;;;;;2.5;1.4;;;;;;;22.61;39.55078;939.2932;;;;
2023/10/13 09:25:57;;;;;;;2.8;1.6;;;;;;;22.86;39.10352;939.2468;;;;
2023/10/13 09:28:18;;;;;;;1.8;1.4;;;;;;;22.63;39.58887;939.2553;;;;
2023/10/13 09:30:41;;;;;;;2.3;1.7;;;;;;;22.49;37.79199;939.1594;;;;
2023/10/13 09:33:15;;;;;;;2.1;1.4;;;;;;;22.3;39.80566;939.137;;;;
2023/10/13 09:35:39;;;;;;;2.7;1.4;;;;;;;22.4;39.94336;939.1262;;;;
2023/10/13 09:38:02;;;;;;;2.7;1.5;;;;;;;22.51;38.88477;939.092;;;;
2023/10/13 09:40:34;;;;;;;3.4;1.8;;;;;;;22.53;38.01953;939.0954;;;;
2023/10/13 09:42:56;;;;;;;2.1;1.5;;;;;;;22.8;38.75781;938.9739;;;;
2023/10/13 09:45:27;;;;;;;2;1.5;;;;;;;22.93;39.55664;938.9437;;;;
2023/10/13 09:47:52;;;;;;;3.4;1.7;;;;;;;23.06;37.34863;938.9933;;;;
2023/10/13 09:50:24;;;;;;;1.7;1.3;;;;;;;23.07;37.74805;938.9339;;;;
2023/10/13 09:52:41;;;;;;;2.4;1.7;;;;;;;23.13;38.76465;938.8811;;;;
2023/10/13 09:55:09;;;;;;;2.1;1.4;;;;;;;23.08;37.47852;938.8166;;;;
2023/10/13 09:57:34;;;;;;;4;1.2;;;;;;;22.88;37.56738;938.8295;;;;
2023/10/13 10:00:05;;;;;;;2.4;1.5;;;;;;;22.9;37.63867;938.8067;;;;
2023/10/13 10:02:25;;;;;;;2.6;1.5;;;;;;;23.03;36.45215;938.7608;;;;
2023/10/13 10:04:51;;;;;;;2.8;1.4;;;;;;;23.24;38.32617;938.7183;;;;
2023/10/13 10:07:11;;;;;;;1.8;1.2;;;;;;;23.43;35.79199;938.7189;;;;
2023/10/13 10:09:37;;;;;;;3;1.4;;;;;;;23.48;36.61914;938.726;;;;
2023/10/13 10:12:25;;;;;;;1.7;1.4;;;;;;;23.68;37.23535;938.7178;;;;
2023/10/13 10:14:54;;;;;;;2.3;1.5;;;;;;;23.8;37.25684;938.6731;;;;
2023/10/13 10:17:16;;;;;;;2.4;1.3;;;;;;;24.03;38.41797;938.6763;;;;
2023/10/13 10:19:44;;;;;;;2.2;1.6;;;;;;;24.16;35.46094;938.6242;;;;
2023/10/13 10:22:16;;;;;;;3.7;1.3;;;;;;;24.21;35.12402;938.6052;;;;
2023/10/13 10:24:36;;;;;;;2.2;1.4;;;;;;;24.08;34.41895;938.588;;;;
2023/10/13 10:26:59;;;;;;;3.5;1.3;;;;;;;24.02;35.4502;938.5439;;;;
2023/10/13 10:29:26;;;;;;;3.3;1.4;;;;;;;24.18;36.66406;938.443;;;;
2023/10/13 10:31:51;;;;;;;2;1.5;;;;;;;24.22;34.73633;938.4182;;;;
2023/10/13 10:34:18;;;;;;;2.8;1.5;;;;;;;24.11;34.70313;938.3425;;;;
2023/10/13 10:36:43;;;;;;;1.8;1.2;;;;;;;24.51;32.60254;938.307;;;;
2023/10/13 10:39:11;;;;;;;2.8;1.3;;;;;;;24.74;34.35254;938.2883;;;;
2023/10/13 10:41:40;;;;;;;2.8;1.3;;;;;;;24.67;31.56445;938.209;;;;
2023/10/13 10:44:02;;;;;;;2.2;1.6;;;;;;;24.81;33.30762;938.1889;;;;
2023/10/13 10:46:24;;;;;;;1.8;1.4;;;;;;;24.85;31.90625;938.0963;;;;
2023/10/13 10:48:56;;;;;;;2.3;1.4;;;;;;;25;31.82324;938.0302;;;;
2023/10/13 10:51:21;;;;;;;2.3;1.3;;;;;;;25.24;30.39941;937.9713;;;;
2023/10/13 10:53:45;;;;;;;1.5;1.4;;;;;;;25.3;31.10059;937.9331;;;;
2023/10/13 10:56:04;;;;;;;1.9;1.3;;;;;;;25.25;31.89941;937.8756;;;;
2023/10/13 10:58:30;;;;;;;2.6;1.2;;;;;;;25.42;32.12402;937.8541;;;;
2023/10/13 11:01:01;;;;;;;3.2;1.6;;;;;;;25.69;31.69434;937.832;;;;
2023/10/13 11:03:20;;;;;;;3.5;1.6;;;;;;;25.65;32.28223;937.7385;;;;
2023/10/13 11:05:46;;;;;;;3;1.5;;;;;;;25.84;32.2373;937.699;;;;
2023/10/13 11:08:15;;;;;;;1.6;1.1;;;;;;;25.85;33.34961;937.6685;;;;
2023/10/13 11:10:38;;;;;;;1.3;1.2;;;;;;;25.85;32.41504;937.5662;;;;
2023/10/13 11:13:12;;;;;;;6.1;1.5;;;;;;;26.18;30.7002;937.5586;;;;
2023/10/13 11:15:33;;;;;;;2.5;1.4;;;;;;;26.18;30.32227;937.5609;;;;
2023/10/13 11:17:54;;;;;;;1.7;1.1;;;;;;;26.15;31.08887;937.4604;;;;
2023/10/13 11:20:19;;;;;;;1.7;1.2;;;;;;;26.29;32.44727;937.4943;;;;
2023/10/13 11:22:46;;;;;;;2.5;1.5;;;;;;;26.38;30.03906;937.427;;;;
2023/10/13 11:25:11;;;;;;;2.5;1.3;;;;;;;26.7;29.91895;937.313;;;;
2023/10/13 11:27:55;;;;;;;4;1.8;;;;;;;27.16;30.81543;937.3408;;;;
2023/10/13 11:30:05;;;;;;;3.9;1.3;;;;;;;27.57;27.93555;937.2428;;;;
2023/10/13 11:32:28;;;;;;;2.9;1.4;;;;;;;27.51;28.89258;937.1725;;;;
2023/10/13 11:34:54;;;;;;;1.7;1.3;;;;;;;27.71;29.43945;937.1376;;;;
2023/10/13 11:38:14;;;;;;;3.4;1.3;;;;;;;27.8;28.37695;937.1227;;;;
2023/10/13 11:39:42;;;;;;;3.6;1.3;;;;;;;27.63;27.76172;937.0628;;;;
2023/10/13 11:42:10;;;;;;;3.2;1.2;;;;;;;27.56;27.91113;936.9803;;;;
2023/10/13 11:44:43;;;;;;;3.7;1.4;;;;;;;27.78;29.05273;936.9978;;;;
2023/10/13 11:47:09;;;;;;;2;1.4;;;;;;;28.21;28.4502;936.9808;;;;
2023/10/13 11:49:36;;;;;;;3;1.4;;;;;;;28.12;28.66992;936.9019;;;;
2023/10/13 11:51:46;;;;;;;2.1;1.3;;;;;;;28.27;28.96484;936.9197;;;;
2023/10/13 11:54:10;;;;;;;3.8;1.5;;;;;;;28.39;29.8291;936.8286;;;;
2023/10/13 11:56:38;;;;;;;1.7;1.3;;;;;;;28.35;28.96973;936.8098;;;;
2023/10/13 11:59:01;;;;;;;1.5;1.3;;;;;;;28.4;28.7959;936.8381;;;;
2023/10/13 12:04:32;;;;;;;2.8;1.5;;;;;;;28.36;29.17285;936.7158;;;;
2023/10/13 12:06:33;;;;;;;2.3;1.3;;;;;;;28.14;28.19727;936.6603;;;;
2023/10/13 12:08:52;;;;;;;4;1.2;;;;;;;28.52;27.74414;936.6306;;;;
2023/10/13 12:11:32;;;;;;;3.5;1.3;;;;;;;28.58;27.87988;936.6002;;;;
2023/10/13 12:13:39;;;;;;;2.3;1.1;;;;;;;28.46;30.9873;936.5577;;;;
2023/10/13 12:16:08;;;;;;;4.8;1.9;;;;;;;28.22;33.32324;936.5108;;;;
2023/10/13 12:18:29;;;;;;;3.9;1.5;;;;;;;28.52;33.73828;936.4972;;;;
2023/10/13 12:20:54;;;;;;;3.4;1.5;;;;;;;28.67;31.02539;936.449;;;;
2023/10/13 12:23:20;;;;;;;1.5;1.2;;;;;;;28.03;32.19336;936.4303;;;;
2023/10/13 12:25:57;;;;;;;3;1.5;;;;;;;27.97;30.09863;936.3703;;;;
2023/10/13 12:28:18;;;;;;;4.7;1.4;;;;;;;27.94;30.99902;936.3633;;;;
2023/10/13 12:30:48;;;;;;;1.3;1.1;;;;;;;28.17;28.87598;936.3024;;;;
2023/10/13 12:33:08;;;;;;;1.5;1;;;;;;;28.56;28.66309;936.3323;;;;
2023/10/13 12:35:34;;;;;;;4.7;1.7;;;;;;;28.95;28.1875;936.2897;;;;
2023/10/13 12:38:04;;;;;;;3;1.6;;;;;;;29.29;27.95898;936.2967;;;;
2023/10/13 12:50:07;;;;;;;2.4;1.1;;;;;;;29.42;27.66895;936.2209;;;;
2023/10/13 12:52:25;;;;;;;1.9;1.2;;;;;;;29.14;28.61621;936.2048;;;;
2023/10/13 12:54:54;;;;;;;3.5;1.3;;;;;;;28.86;28.64648;936.175;;;;
2023/10/13 12:57:11;;;;;;;3.1;1.5;;;;;;;28.48;29.43066;936.1701;;;;
2023/10/13 12:59:40;;;;;;;2.2;1.1;;;;;;;28.29;30.04785;936.1237;;;;
2023/10/13 13:02:07;;;;;;;3.5;1.5;;;;;;;28.44;29.70215;936.0439;;;;
2023/10/13 13:04:36;;;;;;;2.6;1.5;;;;;;;28.7;30.18262;936.0253;;;;
2023/10/13 13:06:56;;;;;;;3.2;1.5;;;;;;;28.74;30.66113;935.9712;;;;
2023/10/13 13:09:32;;;;;;;2.7;1.2;;;;;;;28.81;30.16602;935.9708;;;;
2023/10/13 13:11:57;;;;;;;5.1;1.5;;;;;;;28.97;29.78418;935.8337;;;;
2023/10/13 13:14:28;;;;;;;2.1;1.3;;;;;;;29.04;30.53906;935.8477;;;;
2023/10/13 13:16:50;;;;;;;3.7;1.4;;;;;;;28.88;30.11133;935.8264;;;;
2023/10/13 13:19:25;;;;;;;2;1.2;;;;;;;28.96;29.2959;935.8456;;;;
2023/10/13 13:21:43;;;;;;;1.9;1.4;;;;;;;29.06;29.19531;935.7949;;;;
2023/10/13 13:24:10;;;;;;;3.4;1.3;;;;;;;29.13;29.17578;935.8128;;;;
2023/10/13 13:26:33;;;;;;;3.4;1.2;;;;;;;29.14;29.02148;935.6947;;;;
2023/10/13 13:28:59;;;;;;;2.3;1.5;;;;;;;28.89;29.57715;935.6614;;;;
2023/10/13 13:31:26;;;;;;;3.1;1.6;;;;;;;28.91;29.4707;935.6074;;;;
2023/10/13 13:33:51;;;;;;;1.8;1.2;;;;;;;28.99;29.10742;935.6003;;;;
2023/10/13 13:36:16;;;;;;;3.7;1.3;;;;;;;28.95;29.2832;935.581;;;;
2023/10/13 13:38:45;;;;;;;3;1.3;;;;;;;28.79;29.62988;935.5176;;;;
2023/10/13 13:41:09;;;;;;;2;1.4;;;;;;;28.77;29.49805;935.5525;;;;
2023/10/13 13:43:41;;;;;;;3.3;1.4;;;;;;;28.81;30.38086;935.5497;;;;
2023/10/13 13:46:00;;;;;;;3.6;1.4;;;;;;;28.81;30.08301;935.4501;;;;
2023/10/13 13:48:28;;;;;;;1.9;1.2;;;;;;;28.81;29.82031;935.4019;;;;
2023/10/13 13:50:55;;;;;;;3.9;1.3;;;;;;;28.78;30.35547;935.4049;;;;
2023/10/13 13:53:27;;;;;;;3.2;1.1;;;;;;;28.82;30.0957;935.3747;;;;
2023/10/13 13:55:43;;;;;;;1.8;1.2;;;;;;;28.58;30.4834;935.3878;;;;
2023/10/13 13:58:10;;;;;;;3.3;1.4;;;;;;;28.5;31.70313;935.3063;;;;
2023/10/13 14:00:48;;;;;;;2.1;1.3;;;;;;;28.63;30.21387;935.2494;;;;
2023/10/13 14:03:03;;;;;;;1.4;1.3;;;;;;;28.64;29.63184;935.2989;;;;
2023/10/13 14:05:27;;;;;;;3.3;1.2;;;;;;;28.47;29.56152;935.2938;;;;
2023/10/13 14:07:55;;;;;;;2.2;1.3;;;;;;;28.47;29.64453;935.2643;;;;
2023/10/13 14:10:37;;;;;;;2.2;1.4;;;;;;;28.48;30.01367;935.2092;;;;
2023/10/13 14:12:43;;;;;;;2.2;1.3;;;;;;;28.56;30.32813;935.1951;;;;
2023/10/13 14:15:19;;;;;;;2;1.3;;;;;;;28.58;30.51953;935.1627;;;;
2023/10/13 14:17:35;;;;;;;2.2;1.2;;;;;;;28.63;30.29688;935.119;;;;
2023/10/13 14:20:00;;;;;;;2.3;1.3;;;;;;;28.58;30.4834;935.1158;;;;
2023/10/13 14:22:26;;;;;;;1.3;1.2;;;;;;;28.53;31.0752;935.0958;;;;
2023/10/13 14:24:55;;;;;;;4.5;1.6;;;;;;;28.51;29.93262;935.0775;;;;
2023/10/13 14:27:21;;;;;;;3.3;1.7;;;;;;;28.47;30.39355;935.0254;;;;
2023/10/13 14:29:44;;;;;;;2.5;1.4;;;;;;;28.49;30.76367;934.9792;;;;
2023/10/13 14:32:12;;;;;;;4.6;1.7;;;;;;;28.49;30.71582;935.0022;;;;
2023/10/13 14:34:35;;;;;;;2.7;1.3;;;;;;;28.51;31.22852;934.9756;;;;
2023/10/13 14:37:04;;;;;;;3.6;1.4;;;;;;;28.44;31.56836;934.9235;;;;
2023/10/13 14:39:29;;;;;;;1.5;1.1;;;;;;;28.36;31.1709;934.9194;;;;
2023/10/13 14:41:52;;;;;;;3;1.5;;;;;;;28.33;32.16699;934.9073;;;;
2023/10/13 14:44:17;;;;;;;1.6;1.5;;;;;;;28.32;32.28516;934.9128;;;;
2023/10/13 14:46:42;;;;;;;1.9;1.4;;;;;;;28.21;31.84961;934.909;;;;
2023/10/13 14:49:10;;;;;;;2.5;1.7;;;;;;;28.11;32.89941;934.8981;;;;
2023/10/13 14:51:39;;;;;;;3.2;1.7;;;;;;;28.1;32.68555;934.9152;;;;
2023/10/13 14:54:00;;;;;;;2.2;1.6;;;;;;;28.06;32.50391;934.9331;;;;
2023/10/13 14:56:28;;;;;;;4.2;2.3;;;;;;;27.98;33.62695;934.9059;;;;
2023/10/13 14:58:53;;;;;;;6.1;3.1;;;;;;;28.04;33.27441;934.8935;;;;
2023/10/13 15:01:24;;;;;;;3.6;1.8;;;;;;;27.64;32.02246;934.8855;;;;
2023/10/13 15:03:48;;;;;;;2.8;1.5;;;;;;;27.33;32.94922;934.9236;;;;
2023/10/13 15:06:14;;;;;;;3.9;1.6;;;;;;;27.06;33.4873;934.8926;;;;
2023/10/13 15:08:42;;;;;;;4.6;2.9;;;;;;;27.14;34.47656;934.8508;;;;
2023/10/13 15:11:03;;;;;;;2.6;2;;;;;;;26.94;32.55371;934.7757;;;;
2023/10/13 15:13:31;;;;;;;5.4;2.4;;;;;;;26.84;34.14648;934.7122;;;;
2023/10/13 15:15:55;;;;;;;5.7;2.7;;;;;;;26.83;33.80176;934.7085;;;;
2023/10/13 15:18:23;;;;;;;3;2.1;;;;;;;26.46;34.81543;934.6349;;;;
2023/10/13 15:20:49;;;;;;;2.5;1.6;;;;;;;26.39;35.27148;934.6887;;;;
2023/10/13 15:23:22;;;;;;;3.8;1.6;;;;;;;26.13;35.22754;934.6671;;;;
2023/10/13 15:25:49;;;;;;;3.9;1.4;;;;;;;25.77;36.16797;934.6856;;;;
2023/10/13 15:28:09;;;;;;;1.9;1.3;;;;;;;25.73;36.12891;934.7051;;;;
2023/10/13 15:30:43;;;;;;;2.6;1.4;;;;;;;25.39;36.26855;934.7573;;;;
2023/10/13 15:32:57;;;;;;;2.5;1.4;;;;;;;25.28;36.55371;934.6616;;;;
2023/10/13 15:35:22;;;;;;;4.2;1.7;;;;;;;25.15;36.37793;934.637;;;;
2023/10/13 15:37:49;;;;;;;3.5;1.3;;;;;;;24.79;37.50586;934.6931;;;;
2023/10/13 15:40:15;;;;;;;3.4;1.8;;;;;;;24.81;37.92969;934.6819;;;;
2023/10/13 15:42:41;;;;;;;2.1;1.5;;;;;;;24.61;37.5127;934.6525;;;;
2023/10/13 15:45:14;;;;;;;3.5;1.7;;;;;;;24.29;40.76074;934.6666;;;;
2023/10/13 15:47:34;;;;;;;3.6;1.4;;;;;;;24.08;42.11914;934.6365;;;;
2023/10/13 15:49:55;;;;;;;2.6;1.4;;;;;;;23.94;41.96484;934.69;;;;
2023/10/13 15:52:20;;;;;;;2.7;1.7;;;;;;;23.78;42.53906;934.6536;;;;